createdAt,value
2023-03-10T00:01:19.964Z,93.56
2023-03-10T00:03:46.899Z,93.79
2023-03-10T00:06:15.970Z,94.72
2023-03-10T00:08:43.431Z,95.12
2023-03-10T00:11:10.562Z,97.24
2023-03-10T00:13:37.450Z,98.83
2023-03-10T00:16:04.846Z,100.00
2023-03-10T00:18:31.624Z,100.00
2023-03-10T00:20:59.055Z,100.00
2023-03-10T00:23:26.100Z,100.00
2023-03-10T00:26:00.618Z,100.00
2023-03-10T00:28:28.090Z,100.00
2023-03-10T00:31:10.203Z,100.00
2023-03-10T00:33:37.282Z,100.00
2023-03-10T00:36:05.288Z,100.00
2023-03-10T00:38:32.849Z,100.00
2023-03-10T00:41:08.475Z,100.00
2023-03-10T00:43:36.148Z,100.00
2023-03-10T00:46:03.687Z,100.00
2023-03-10T00:48:31.168Z,100.00
2023-03-10T00:50:58.751Z,100.00
2023-03-10T00:53:26.331Z,100.00
2023-03-10T00:56:05.106Z,100.00
2023-03-10T00:58:33.136Z,100.00
2023-03-10T01:01:01.424Z,100.00
2023-03-10T01:03:28.951Z,100.00
2023-03-10T01:05:56.578Z,100.00
2023-03-10T01:08:23.658Z,100.00
2023-03-10T01:10:50.316Z,100.00
2023-03-10T01:13:18.313Z,100.00
2023-03-10T01:15:47.726Z,100.00
2023-03-10T01:18:15.652Z,100.00
2023-03-10T01:20:42.513Z,100.00
2023-03-10T01:23:17.294Z,100.00
2023-03-10T01:25:44.042Z,100.00
2023-03-10T01:28:10.972Z,100.00
2023-03-10T01:30:38.945Z,100.00
2023-03-10T01:33:06.247Z,100.00
2023-03-10T01:35:32.927Z,100.00
2023-03-10T01:37:59.674Z,100.00
2023-03-10T01:40:28.206Z,100.00
2023-03-10T01:43:16.472Z,100.00
2023-03-10T01:45:45.906Z,100.00
2023-03-10T01:48:15.434Z,100.00
2023-03-10T01:50:45.169Z,100.00
2023-03-10T01:53:14.630Z,100.00
2023-03-10T01:55:46.597Z,100.00
2023-03-10T01:58:15.901Z,100.00
2023-03-10T02:00:43.410Z,100.00
2023-03-10T02:03:16.133Z,100.00
2023-03-10T02:05:50.399Z,100.00
2023-03-10T02:08:18.978Z,100.00
2023-03-10T02:10:46.793Z,100.00
2023-03-10T02:13:13.993Z,100.00
2023-03-10T02:15:41.547Z,100.00
2023-03-10T02:18:12.139Z,100.00
2023-03-10T02:21:11.457Z,100.00
2023-03-10T02:24:01.775Z,100.00
2023-03-10T02:26:43.928Z,100.00
2023-03-10T02:29:20.499Z,100.00
2023-03-10T02:31:48.282Z,100.00
2023-03-10T02:34:15.054Z,100.00
2023-03-10T02:36:41.880Z,100.00
2023-03-10T02:39:10.512Z,100.00
2023-03-10T02:41:39.593Z,100.00
2023-03-10T02:44:12.051Z,100.00
2023-03-10T02:46:38.644Z,100.00
2023-03-10T02:49:07.888Z,100.00
2023-03-10T02:51:41.880Z,100.00
2023-03-10T02:54:12.559Z,100.00
2023-03-10T02:56:40.834Z,100.00
2023-03-10T02:59:08.475Z,100.00
2023-03-10T03:01:37.502Z,100.00
2023-03-10T03:04:05.733Z,100.00
2023-03-10T03:06:32.472Z,100.00
2023-03-10T03:09:00.611Z,100.00
2023-03-10T03:11:29.450Z,100.00
2023-03-10T03:13:56.102Z,100.00
2023-03-10T03:16:23.859Z,100.00
2023-03-10T03:18:54.420Z,100.00
2023-03-10T03:21:23.120Z,100.00
2023-03-10T03:23:49.968Z,100.00
2023-03-10T03:26:24.240Z,100.00
2023-03-10T03:28:56.212Z,100.00
2023-03-10T03:31:26.878Z,100.00
2023-03-10T03:34:16.665Z,100.00
2023-03-10T03:36:45.079Z,100.00
2023-03-10T03:39:17.442Z,100.00
2023-03-10T03:41:46.871Z,100.00
2023-03-10T03:44:13.627Z,100.00
2023-03-10T03:46:40.816Z,100.00
2023-03-10T03:49:08.292Z,100.00
2023-03-10T03:51:36.743Z,100.00
2023-03-10T03:54:04.359Z,100.00
2023-03-10T03:56:34.592Z,100.00
2023-03-10T03:59:01.465Z,100.00
2023-03-10T04:01:28.122Z,99.62
2023-03-10T04:03:57.437Z,99.65
2023-03-10T04:06:24.350Z,99.46
2023-03-10T04:08:52.574Z,99.44
2023-03-10T04:11:21.141Z,98.84
2023-03-10T04:13:49.381Z,99.19
2023-03-10T04:16:16.777Z,99.21
2023-03-10T04:18:45.037Z,98.66
2023-03-10T04:21:14.151Z,98.62
2023-03-10T04:23:42.281Z,97.56
2023-03-10T04:26:11.733Z,96.97
2023-03-10T04:28:39.908Z,97.83
2023-03-10T04:31:14.822Z,97.79
2023-03-10T04:33:42.110Z,97.25
2023-03-10T04:36:09.324Z,96.96
2023-03-10T04:38:36.905Z,96.98
2023-03-10T04:41:05.165Z,97.77
2023-03-10T04:43:37.415Z,96.80
2023-03-10T04:46:05.207Z,96.53
2023-03-10T04:48:32.400Z,95.89
2023-03-10T04:51:01.972Z,95.33
2023-03-10T04:53:32.705Z,95.73
2023-03-10T04:56:01.077Z,96.19
2023-03-10T04:58:28.189Z,95.59
2023-03-10T05:01:03.190Z,96.55
2023-03-10T05:03:33.383Z,97.52
2023-03-10T05:06:00.081Z,98.63
2023-03-10T05:08:28.036Z,99.71
2023-03-10T05:10:54.801Z,100.00
2023-03-10T05:13:22.242Z,100.00
2023-03-10T05:15:49.175Z,100.00
2023-03-10T05:18:16.610Z,100.00
2023-03-10T05:20:43.228Z,100.00
2023-03-10T05:23:09.796Z,100.00
2023-03-10T05:25:36.435Z,100.00
2023-03-10T05:28:03.334Z,100.00
2023-03-10T05:30:30.291Z,100.00
2023-03-10T05:32:58.129Z,100.00
2023-03-10T05:35:24.730Z,100.00
2023-03-10T05:37:51.874Z,100.00
2023-03-10T05:40:21.327Z,100.00
2023-03-10T05:42:49.320Z,100.00
2023-03-10T05:45:17.647Z,100.00
2023-03-10T05:47:46.601Z,100.00
2023-03-10T05:50:15.650Z,100.00
2023-03-10T05:52:43.982Z,99.66
2023-03-10T05:55:14.064Z,99.96
2023-03-10T05:57:41.466Z,100.00
2023-03-10T06:00:10.498Z,100.00
2023-03-10T06:02:42.769Z,99.11
2023-03-10T06:05:13.649Z,97.67
2023-03-10T06:07:40.669Z,97.36
2023-03-10T06:10:08.062Z,96.85
2023-03-10T06:12:34.684Z,96.76
2023-03-10T06:15:01.499Z,96.32
2023-03-10T06:17:28.108Z,96.95
2023-03-10T06:19:54.803Z,95.97
2023-03-10T06:22:21.359Z,96.57
2023-03-10T06:24:47.962Z,95.54
2023-03-10T06:27:14.573Z,95.30
2023-03-10T06:29:41.169Z,95.62
2023-03-10T06:32:09.010Z,94.34
2023-03-10T06:34:35.609Z,93.65
2023-03-10T06:37:02.197Z,94.17
2023-03-10T06:39:29.060Z,93.60
2023-03-10T06:41:55.693Z,93.56
2023-03-10T06:44:22.250Z,93.53
2023-03-10T06:46:48.899Z,92.37
2023-03-10T06:49:15.481Z,92.44
2023-03-10T06:51:42.074Z,92.39
2023-03-10T06:54:08.625Z,91.61
2023-03-10T06:56:35.220Z,91.77
2023-03-10T06:59:01.966Z,91.93
2023-03-10T07:01:31.810Z,90.62
2023-03-10T07:03:59.179Z,90.76
2023-03-10T07:06:26.104Z,91.25
2023-03-10T07:08:54.340Z,91.18
2023-03-10T07:11:21.580Z,90.80
2023-03-10T07:13:48.219Z,90.87
2023-03-10T07:16:15.239Z,90.00
2023-03-10T07:18:41.911Z,90.48
2023-03-10T07:21:13.027Z,90.09
2023-03-10T07:23:40.424Z,90.11
2023-03-10T07:26:09.047Z,90.86
2023-03-10T07:28:37.310Z,90.83
2023-03-10T07:31:08.852Z,90.11
2023-03-10T07:33:36.381Z,90.30
2023-03-10T07:36:12.329Z,89.87
2023-03-10T07:38:39.565Z,90.19
2023-03-10T07:41:11.815Z,89.25
2023-03-10T07:43:38.454Z,88.63
2023-03-10T07:46:07.226Z,87.79
2023-03-10T07:48:34.160Z,87.22
2023-03-10T07:51:01.109Z,87.08
2023-03-10T07:53:28.964Z,87.70
2023-03-10T07:55:55.657Z,89.29
2023-03-10T07:58:22.800Z,90.38
2023-03-10T08:00:59.002Z,90.09
2023-03-10T08:03:27.234Z,89.80
2023-03-10T08:05:54.146Z,87.97
2023-03-10T08:08:20.749Z,86.49
2023-03-10T08:10:47.401Z,87.66
2023-03-10T08:13:14.474Z,87.01
2023-03-10T08:15:41.620Z,86.66
2023-03-10T08:18:09.451Z,85.85
2023-03-10T08:20:36.805Z,86.66
2023-03-10T08:23:04.218Z,86.26
2023-03-10T08:25:31.305Z,85.97
2023-03-10T08:27:58.137Z,85.84
2023-03-10T08:30:25.136Z,85.66
2023-03-10T08:32:51.787Z,84.43
2023-03-10T08:35:18.760Z,83.03
2023-03-10T08:37:45.920Z,83.35
2023-03-10T08:40:14.987Z,83.96
2023-03-10T08:42:41.883Z,84.01
2023-03-10T08:45:09.248Z,81.81
2023-03-10T08:47:36.032Z,79.36
2023-03-10T08:50:03.739Z,78.00
2023-03-10T08:52:30.458Z,76.58
2023-03-10T08:54:59.739Z,76.31
2023-03-10T08:57:26.624Z,76.66
2023-03-10T08:59:53.369Z,75.32
2023-03-10T09:02:34.260Z,75.82
2023-03-10T09:05:00.970Z,75.29
2023-03-10T09:07:27.569Z,76.38
2023-03-10T09:09:54.150Z,75.57
2023-03-10T09:12:20.807Z,75.84
2023-03-10T09:14:47.496Z,74.96
2023-03-10T09:17:14.158Z,75.41
2023-03-10T09:19:40.727Z,75.90
2023-03-10T09:22:07.339Z,76.07
2023-03-10T09:24:33.925Z,75.57
2023-03-10T09:27:00.806Z,74.84
2023-03-10T09:29:42.267Z,73.71
2023-03-10T09:32:10.053Z,74.02
2023-03-10T09:34:36.746Z,72.21
2023-03-10T09:37:03.679Z,73.90
2023-03-10T09:39:30.329Z,72.72
2023-03-10T09:42:37.354Z,73.17
2023-03-10T09:45:24.475Z,73.41
2023-03-10T09:48:41.243Z,72.96
2023-03-10T09:51:16.947Z,73.33
2023-03-10T09:53:58.264Z,73.93
2023-03-10T09:56:31.863Z,73.73
2023-03-10T09:59:15.024Z,71.75
2023-03-10T10:01:46.807Z,71.11
2023-03-10T10:04:31.804Z,71.44
2023-03-10T10:06:59.273Z,70.90
2023-03-10T10:09:42.250Z,69.77
2023-03-10T10:12:12.828Z,69.22
2023-03-10T10:14:42.660Z,69.10
2023-03-10T10:17:56.474Z,72.08
2023-03-10T10:20:50.581Z,70.73
2023-03-10T10:23:22.809Z,70.79
2023-03-10T10:25:50.534Z,72.39
2023-03-10T10:28:36.628Z,71.83
2023-03-10T10:31:17.418Z,70.54
2023-03-10T10:33:57.610Z,71.72
2023-03-10T10:36:27.306Z,69.63
2023-03-10T10:38:55.384Z,68.82
2023-03-10T10:41:28.643Z,69.47
2023-03-10T10:43:58.836Z,70.54
2023-03-10T10:46:29.111Z,71.26
2023-03-10T10:49:08.962Z,71.05
2023-03-10T10:51:37.905Z,71.44
2023-03-10T10:54:28.720Z,71.75
2023-03-10T10:57:00.372Z,72.67
2023-03-10T10:59:35.940Z,74.45
2023-03-10T11:02:37.203Z,73.86
2023-03-10T11:05:14.138Z,73.95
2023-03-10T11:07:40.775Z,75.20
2023-03-10T11:10:30.618Z,76.28
2023-03-10T11:13:07.085Z,78.07
2023-03-10T11:16:12.505Z,76.98
2023-03-10T11:18:51.869Z,77.18
2023-03-10T11:21:26.027Z,78.44
2023-03-10T11:24:01.740Z,77.93
2023-03-10T11:27:20.913Z,80.60
2023-03-10T11:29:50.275Z,78.47
2023-03-10T11:32:22.864Z,78.37
2023-03-10T11:34:53.867Z,78.16
2023-03-10T11:37:32.647Z,79.55
2023-03-10T11:40:20.051Z,79.55
2023-03-10T11:43:02.353Z,78.40
2023-03-10T11:45:37.139Z,77.90
2023-03-10T11:48:34.646Z,76.90
2023-03-10T11:51:03.908Z,76.62
2023-03-10T11:53:40.829Z,78.89
2023-03-10T11:56:10.859Z,80.33
2023-03-10T11:58:46.862Z,82.77
2023-03-10T12:01:24.358Z,83.31
2023-03-10T12:03:57.902Z,84.10
2023-03-10T12:06:52.007Z,85.00
2023-03-10T12:09:25.896Z,87.00
2023-03-10T12:11:53.402Z,87.73
2023-03-10T12:14:20.815Z,88.13
2023-03-10T12:16:48.577Z,89.99
2023-03-10T12:19:15.190Z,90.07
2023-03-10T12:21:41.759Z,86.87
2023-03-10T12:24:41.832Z,87.80
2023-03-10T12:27:08.429Z,86.46
2023-03-10T12:29:37.742Z,84.62
2023-03-10T12:32:05.301Z,82.95
2023-03-10T12:34:32.549Z,83.05
2023-03-10T12:37:09.030Z,84.17
2023-03-10T12:39:38.491Z,84.63
2023-03-10T12:42:32.497Z,85.11
2023-03-10T12:45:17.734Z,85.95
2023-03-10T12:48:12.143Z,87.58
2023-03-10T12:51:02.873Z,89.25
2023-03-10T12:53:36.805Z,89.76
2023-03-10T12:56:12.433Z,91.32
2023-03-10T12:58:43.678Z,89.26
2023-03-10T13:01:13.426Z,87.91
2023-03-10T13:03:48.156Z,87.95
2023-03-10T13:06:14.724Z,87.88
2023-03-10T13:08:45.637Z,88.91
2023-03-10T13:11:18.324Z,89.82
2023-03-10T13:13:50.076Z,90.80
2023-03-10T13:16:19.575Z,89.68
2023-03-10T13:18:50.701Z,90.52
2023-03-10T13:21:35.681Z,92.10
2023-03-10T13:24:04.834Z,93.18
2023-03-10T13:26:31.458Z,93.62
2023-03-10T13:29:02.806Z,95.80
2023-03-10T13:31:31.904Z,96.25
2023-03-10T13:34:13.504Z,96.10
2023-03-10T13:36:41.101Z,92.52
2023-03-10T13:39:19.997Z,93.18
2023-03-10T13:41:50.400Z,93.46
2023-03-10T13:44:22.747Z,92.31
2023-03-10T13:47:03.334Z,90.79
2023-03-10T13:49:35.290Z,91.73
2023-03-10T13:52:05.225Z,92.35
2023-03-10T13:54:34.617Z,94.25
2023-03-10T13:57:09.508Z,95.76
2023-03-10T13:59:37.558Z,95.05
2023-03-10T14:02:10.146Z,93.79
2023-03-10T14:04:47.466Z,92.84
2023-03-10T14:07:26.199Z,93.72
2023-03-10T14:10:04.748Z,95.67
2023-03-10T14:12:38.455Z,97.71
2023-03-10T14:15:14.199Z,98.37
2023-03-10T14:17:42.529Z,97.84
2023-03-10T14:20:10.648Z,97.27
2023-03-10T14:22:43.295Z,98.31
2023-03-10T14:25:16.436Z,99.46
2023-03-10T14:27:55.021Z,98.18
2023-03-10T14:30:26.294Z,99.60
2023-03-10T14:32:54.105Z,99.15
2023-03-10T14:35:23.033Z,99.29
2023-03-10T14:37:50.891Z,100.00
2023-03-10T14:40:18.972Z,100.00
2023-03-10T14:42:46.351Z,97.26
2023-03-10T14:45:28.394Z,94.68
2023-03-10T14:48:00.599Z,91.74
2023-03-10T14:50:28.576Z,93.18
2023-03-10T14:52:55.630Z,91.45
2023-03-10T14:55:22.269Z,90.87
2023-03-10T14:57:55.491Z,90.63
2023-03-10T15:00:22.850Z,89.48
2023-03-10T15:02:58.075Z,90.08
2023-03-10T15:05:34.626Z,89.50
2023-03-10T15:08:05.501Z,87.82
2023-03-10T15:10:35.988Z,86.67
2023-03-10T15:13:02.803Z,84.49
2023-03-10T15:15:36.690Z,87.12
2023-03-10T15:18:04.008Z,89.35
2023-03-10T15:20:31.045Z,90.72
2023-03-10T15:22:57.702Z,91.68
2023-03-10T15:25:24.420Z,92.59
2023-03-10T15:27:52.541Z,95.10
2023-03-10T15:30:22.428Z,95.78
2023-03-10T15:32:50.023Z,96.03
2023-03-10T15:35:17.210Z,96.58
2023-03-10T15:37:44.763Z,95.25
2023-03-10T15:40:15.843Z,93.14
2023-03-10T15:42:47.154Z,94.32
2023-03-10T15:45:14.896Z,94.15
2023-03-10T15:47:41.925Z,94.76
2023-03-10T15:50:09.561Z,92.70
2023-03-10T15:52:36.344Z,91.32
2023-03-10T15:55:03.001Z,89.45
2023-03-10T15:57:29.647Z,89.86
2023-03-10T15:59:56.336Z,88.08
2023-03-10T16:02:32.786Z,89.18
2023-03-10T16:04:59.376Z,89.92
2023-03-10T16:07:25.995Z,89.29
2023-03-10T16:09:52.778Z,88.82
2023-03-10T16:12:22.214Z,89.14
2023-03-10T16:14:48.855Z,88.08
2023-03-10T16:17:15.535Z,85.81
2023-03-10T16:19:42.299Z,83.74
2023-03-10T16:22:10.448Z,84.81
2023-03-10T16:24:37.064Z,84.98
2023-03-10T16:27:03.816Z,84.29
2023-03-10T16:29:30.666Z,84.14
2023-03-10T16:31:57.471Z,84.02
2023-03-10T16:34:24.132Z,83.86
2023-03-10T16:36:50.879Z,83.58
2023-03-10T16:39:17.956Z,83.31
2023-03-10T16:41:44.689Z,83.26
2023-03-10T16:44:13.090Z,84.04
2023-03-10T16:46:39.813Z,85.20
2023-03-10T16:49:07.268Z,85.27
2023-03-10T16:51:38.617Z,84.84
2023-03-10T16:54:07.793Z,84.24
2023-03-10T16:56:40.067Z,83.79
2023-03-10T16:59:06.916Z,83.63
2023-03-10T17:01:33.568Z,84.77
2023-03-10T17:04:24.400Z,84.34
2023-03-10T17:06:51.244Z,83.44
2023-03-10T17:09:18.113Z,84.38
2023-03-10T17:11:47.687Z,85.11
2023-03-10T17:14:15.758Z,85.43
2023-03-10T17:16:43.749Z,85.26
2023-03-10T17:19:16.150Z,85.45
2023-03-10T17:21:46.608Z,85.69
2023-03-10T17:24:15.655Z,86.91
2023-03-10T17:26:43.173Z,82.18
2023-03-10T17:29:10.280Z,80.70
2023-03-10T17:31:37.549Z,82.74
2023-03-10T17:34:10.379Z,81.85
2023-03-10T17:36:37.210Z,81.46
2023-03-10T17:39:05.645Z,79.00
2023-03-10T17:41:34.432Z,78.77
2023-03-10T17:44:01.020Z,80.23
2023-03-10T17:46:29.567Z,81.33
2023-03-10T17:48:57.168Z,83.99
2023-03-10T17:51:28.533Z,82.67
2023-03-10T17:53:58.433Z,81.79
2023-03-10T17:56:25.584Z,82.63
2023-03-10T17:58:56.556Z,80.42
2023-03-10T18:01:27.261Z,76.60
2023-03-10T18:03:59.049Z,74.82
2023-03-10T18:06:31.613Z,73.87
2023-03-10T18:08:59.929Z,73.79
2023-03-10T18:11:27.692Z,74.20
2023-03-10T18:13:54.353Z,73.55
2023-03-10T18:16:30.254Z,74.79
2023-03-10T18:18:58.269Z,74.33
2023-03-10T18:21:26.757Z,73.81
2023-03-10T18:23:54.207Z,75.90
2023-03-10T18:26:24.754Z,74.84
2023-03-10T18:28:55.527Z,75.05
2023-03-10T18:31:26.328Z,74.94
2023-03-10T18:33:53.748Z,75.95
2023-03-10T18:36:23.430Z,75.54
2023-03-10T18:38:51.788Z,75.59
2023-03-10T18:41:20.669Z,76.44
2023-03-10T18:43:47.459Z,76.26
2023-03-10T18:46:14.482Z,76.26
2023-03-10T18:48:41.700Z,75.76
2023-03-10T18:51:08.440Z,76.52
2023-03-10T18:53:35.158Z,76.60
2023-03-10T18:56:01.754Z,76.89
2023-03-10T18:58:29.874Z,77.66
2023-03-10T19:00:56.933Z,77.64
2023-03-10T19:03:23.508Z,77.77
2023-03-10T19:05:56.989Z,77.87
2023-03-10T19:08:24.759Z,78.28
2023-03-10T19:10:58.995Z,78.21
2023-03-10T19:13:28.169Z,78.16
2023-03-10T19:15:55.172Z,78.37
2023-03-10T19:18:22.134Z,77.86
2023-03-10T19:20:48.830Z,77.85
2023-03-10T19:23:15.613Z,79.46
2023-03-10T19:25:42.547Z,79.46
2023-03-10T19:28:09.261Z,80.60
2023-03-10T19:30:35.872Z,80.97
2023-03-10T19:33:03.301Z,80.76
2023-03-10T19:35:30.114Z,79.66
2023-03-10T19:37:56.815Z,80.64
2023-03-10T19:40:23.646Z,80.19
2023-03-10T19:42:50.544Z,80.11
2023-03-10T19:45:18.522Z,80.57
2023-03-10T19:47:46.269Z,81.71
2023-03-10T19:50:16.137Z,80.32
2023-03-10T19:52:48.108Z,81.44
2023-03-10T19:55:19.610Z,80.32
2023-03-10T19:57:48.640Z,81.12
2023-03-10T20:00:18.890Z,81.74
2023-03-10T20:02:45.907Z,81.88
2023-03-10T20:05:15.870Z,81.97
2023-03-10T20:07:46.410Z,81.17
2023-03-10T20:10:15.729Z,81.27
2023-03-10T20:12:42.986Z,81.01
2023-03-10T20:15:11.412Z,81.46
2023-03-10T20:17:38.137Z,81.73
2023-03-10T20:20:10.477Z,81.62
2023-03-10T20:22:41.842Z,81.90
2023-03-10T20:25:10.493Z,81.53
2023-03-10T20:27:37.286Z,80.44
2023-03-10T20:30:17.569Z,79.96
2023-03-10T20:32:44.570Z,79.90
2023-03-10T20:35:13.700Z,80.32
2023-03-10T20:37:42.124Z,80.77
2023-03-10T20:40:11.857Z,80.74
2023-03-10T20:42:38.742Z,80.12
2023-03-10T20:45:07.281Z,80.70
2023-03-10T20:47:34.265Z,81.87
2023-03-10T20:50:03.482Z,81.16
2023-03-10T20:52:33.449Z,81.06
2023-03-10T20:55:00.039Z,81.21
2023-03-10T20:57:26.716Z,81.38
2023-03-10T20:59:53.327Z,83.34
2023-03-10T21:02:19.907Z,84.34
2023-03-10T21:04:47.179Z,85.79
2023-03-10T21:07:14.392Z,86.92
2023-03-10T21:09:42.076Z,87.91
2023-03-10T21:12:08.918Z,88.93
2023-03-10T21:14:35.507Z,89.69
2023-03-10T21:17:03.129Z,92.13
2023-03-10T21:19:30.260Z,91.38
2023-03-10T21:21:56.851Z,91.02
2023-03-10T21:24:23.502Z,91.24
2023-03-10T21:26:50.101Z,91.54
2023-03-10T21:29:16.831Z,92.66
2023-03-10T21:31:43.389Z,90.86
2023-03-10T21:34:09.966Z,91.19
2023-03-10T21:36:36.561Z,90.96
2023-03-10T21:39:03.809Z,90.80
2023-03-10T21:41:30.972Z,90.67
2023-03-10T21:43:59.183Z,91.21
2023-03-10T21:46:26.431Z,90.82
2023-03-10T21:48:53.281Z,91.10
2023-03-10T21:51:24.457Z,90.71
2023-03-10T21:53:53.869Z,90.23
2023-03-10T21:56:22.607Z,90.90
2023-03-10T21:58:49.960Z,89.52
2023-03-10T22:01:18.288Z,89.62
2023-03-10T22:03:45.534Z,89.64
2023-03-10T22:06:12.872Z,88.66
2023-03-10T22:08:39.535Z,89.00
2023-03-10T22:11:08.542Z,87.76
2023-03-10T22:13:39.472Z,88.50
2023-03-10T22:16:08.388Z,87.62
2023-03-10T22:18:35.980Z,87.30
2023-03-10T22:21:02.758Z,87.75
2023-03-10T22:23:29.914Z,87.97
2023-03-10T22:25:57.334Z,87.03
2023-03-10T22:28:24.012Z,85.88
2023-03-10T22:30:51.287Z,85.24
2023-03-10T22:33:18.753Z,84.05
2023-03-10T22:35:52.115Z,83.07
2023-03-10T22:38:20.808Z,82.64
2023-03-10T22:40:49.914Z,81.41
2023-03-10T22:43:16.785Z,79.48
2023-03-10T22:45:44.254Z,77.77
2023-03-10T22:48:11.003Z,78.23
2023-03-10T22:50:41.542Z,76.76
2023-03-10T22:53:14.939Z,76.86
2023-03-10T22:55:43.898Z,76.32
2023-03-10T22:58:11.601Z,76.40
2023-03-10T23:00:40.473Z,75.62
2023-03-10T23:03:07.671Z,75.62
2023-03-10T23:05:34.599Z,76.74
2023-03-10T23:08:01.214Z,75.92
2023-03-10T23:10:32.845Z,75.89
2023-03-10T23:13:02.166Z,75.02
2023-03-10T23:15:34.198Z,75.92
2023-03-10T23:18:01.157Z,76.98
2023-03-10T23:20:33.089Z,79.34
2023-03-10T23:23:01.576Z,80.90
2023-03-10T23:25:37.933Z,81.64
2023-03-10T23:28:06.311Z,80.57
2023-03-10T23:30:35.123Z,80.16
2023-03-10T23:33:02.974Z,79.45
2023-03-10T23:35:33.005Z,79.34
2023-03-10T23:38:01.421Z,79.21
2023-03-10T23:40:30.679Z,79.51
2023-03-10T23:43:02.156Z,81.23
2023-03-10T23:45:31.845Z,81.12
2023-03-10T23:48:01.648Z,81.29
2023-03-10T23:50:32.718Z,81.55
2023-03-10T23:53:00.325Z,82.41
2023-03-10T23:55:30.689Z,82.66
2023-03-10T23:57:58.016Z,82.44
